Ark, Virginia
Current Conditions -  °F | °C
As of 9:35 AM on Wednesday 22 Oct 2014 (Local Time) from KFYJ Reporting Station
Overcast Overcast  
Wind Chill: 56°   Ceiling: 1000
Heat Index: 56°   Visibility: 10mi
Dew Point: 52°   Wind: 8mph
Humidity: 85%   Direction: 310°NW
Pressure: 29.88"   Gusts: NA
Location:  37.44°N, 76.58°W
Report Text: KFYJ 221335Z AUTO 31007KT 10SM OVC010 13/11 A2988 RMK AO2 T01340110
Loading
Personal Weather Stations






























Interactive Weather Map
Tropical Storm Tracking
New forecast layout! Learn more

10-Day Weather Forecast

Advertisements
Track Severe Weather on mobile